createdAt,value
2022-08-17T00:00:51.756Z,22.29
2022-08-17T00:03:20.653Z,22.27
2022-08-17T00:05:49.631Z,22.27
2022-08-17T00:08:23.569Z,22.24
2022-08-17T00:10:51.111Z,22.21
2022-08-17T00:13:20.325Z,22.17
2022-08-17T00:15:47.132Z,22.16
2022-08-17T00:19:06.829Z,22.17
2022-08-17T00:21:01.626Z,22.16
2022-08-17T00:23:29.811Z,22.17
2022-08-17T00:25:56.145Z,22.18
2022-08-17T00:28:23.991Z,22.17
2022-08-17T00:30:53.306Z,22.16
2022-08-17T00:33:20.962Z,22.18
2022-08-17T00:35:48.013Z,22.14
2022-08-17T00:38:14.552Z,22.11
2022-08-17T00:40:44.389Z,22.09
2022-08-17T00:43:15.354Z,22.05
2022-08-17T00:45:43.366Z,22.03
2022-08-17T00:48:28.965Z,22.00
2022-08-17T00:50:58.480Z,21.97
2022-08-17T00:53:25.381Z,21.95
2022-08-17T00:55:52.124Z,21.93
2022-08-17T00:58:19.451Z,21.92
2022-08-17T01:01:04.120Z,21.89
2022-08-17T01:03:30.824Z,21.87
2022-08-17T01:05:58.919Z,21.85
2022-08-17T01:08:26.933Z,21.84
2022-08-17T01:11:00.380Z,21.84
2022-08-17T01:13:28.884Z,21.82
2022-08-17T01:15:56.998Z,21.78
2022-08-17T01:18:24.767Z,21.78
2022-08-17T01:20:53.419Z,21.78
2022-08-17T01:23:22.971Z,21.76
2022-08-17T01:25:49.643Z,21.74
2022-08-17T01:28:52.317Z,21.73
2022-08-17T01:31:04.984Z,21.69
2022-08-17T01:33:31.402Z,21.67
2022-08-17T01:35:57.931Z,21.64
2022-08-17T01:38:27.068Z,21.61
2022-08-17T01:40:57.456Z,21.56
2022-08-17T01:43:27.000Z,21.52
2022-08-17T01:46:02.717Z,21.46
2022-08-17T01:48:31.185Z,21.42
2022-08-17T01:50:57.928Z,21.38
2022-08-17T01:53:27.362Z,21.34
2022-08-17T01:55:55.350Z,21.31
2022-08-17T01:58:21.784Z,21.30
2022-08-17T02:01:01.044Z,21.28
2022-08-17T02:03:28.773Z,21.24
2022-08-17T02:05:55.454Z,21.20
2022-08-17T02:08:39.318Z,21.18
2022-08-17T02:11:12.277Z,21.18
2022-08-17T02:13:38.755Z,21.16
2022-08-17T02:16:05.095Z,21.12
2022-08-17T02:18:31.413Z,21.09
2022-08-17T02:20:57.775Z,21.06
2022-08-17T02:23:26.204Z,21.04
2022-08-17T02:25:53.047Z,21.00
2022-08-17T02:28:20.691Z,20.96
2022-08-17T02:31:01.946Z,20.93
2022-08-17T02:33:37.163Z,20.90
2022-08-17T02:36:10.226Z,20.84
2022-08-17T02:38:36.565Z,20.82
2022-08-17T02:41:02.896Z,20.79
2022-08-17T02:43:30.830Z,20.79
2022-08-17T02:45:57.169Z,20.79
2022-08-17T02:48:31.411Z,20.77
2022-08-17T02:50:58.255Z,20.79
2022-08-17T02:53:24.620Z,20.79
2022-08-17T02:55:52.252Z,20.80
2022-08-17T02:58:35.486Z,20.80
2022-08-17T03:01:04.620Z,20.78
2022-08-17T03:03:30.994Z,20.76
2022-08-17T03:05:57.354Z,20.75
2022-08-17T03:08:23.671Z,20.75
2022-08-17T03:10:49.989Z,20.76
2022-08-17T03:13:16.353Z,20.74
2022-08-17T03:15:44.191Z,20.71
2022-08-17T03:18:24.320Z,20.73
2022-08-17T03:20:51.994Z,20.73
2022-08-17T03:23:18.313Z,20.71
2022-08-17T03:25:44.716Z,20.70
2022-08-17T03:28:12.083Z,20.68
2022-08-17T03:30:38.919Z,20.62
2022-08-17T03:33:06.703Z,20.60
2022-08-17T03:35:34.833Z,20.61
2022-08-17T03:38:01.582Z,20.61
2022-08-17T03:40:41.801Z,20.59
2022-08-17T03:43:15.266Z,20.59
2022-08-17T03:45:42.381Z,20.57
2022-08-17T03:48:10.191Z,20.56
2022-08-17T03:50:37.877Z,20.56
2022-08-17T03:53:06.415Z,20.56
2022-08-17T03:55:35.850Z,20.56
2022-08-17T03:58:02.756Z,20.56
2022-08-17T04:00:29.198Z,20.53
2022-08-17T04:02:55.564Z,20.53
2022-08-17T04:05:21.902Z,20.53
2022-08-17T04:07:49.559Z,20.53
2022-08-17T04:10:15.918Z,20.55
2022-08-17T04:12:43.602Z,20.54
2022-08-17T04:15:10.279Z,20.56
2022-08-17T04:17:36.595Z,20.56
2022-08-17T04:20:03.375Z,20.54
2022-08-17T04:22:33.179Z,20.51
2022-08-17T04:25:06.899Z,20.48
2022-08-17T04:27:33.223Z,20.46
2022-08-17T04:29:59.570Z,20.42
2022-08-17T04:33:10.466Z,20.39
2022-08-17T04:35:12.208Z,20.35
2022-08-17T04:37:38.510Z,20.35
2022-08-17T04:40:06.700Z,20.33
2022-08-17T04:42:33.060Z,20.31
2022-08-17T04:44:59.389Z,20.24
2022-08-17T04:47:25.714Z,20.24
2022-08-17T04:49:52.026Z,20.16
2022-08-17T04:52:37.453Z,20.14
2022-08-17T04:55:06.522Z,20.07
2022-08-17T04:57:37.663Z,20.08
2022-08-17T05:00:06.657Z,20.16
2022-08-17T05:02:32.980Z,20.22
2022-08-17T05:04:59.282Z,20.19
2022-08-17T05:07:31.311Z,20.00
2022-08-17T05:09:57.970Z,19.97
2022-08-17T05:12:25.626Z,20.07
2022-08-17T05:14:51.963Z,20.05
2022-08-17T05:17:18.274Z,20.00
2022-08-17T05:19:47.601Z,19.94
2022-08-17T05:22:16.384Z,19.95
2022-08-17T05:24:52.707Z,19.99
2022-08-17T05:27:20.344Z,20.06
2022-08-17T05:29:48.046Z,20.04
2022-08-17T05:32:38.734Z,20.03
2022-08-17T05:35:00.967Z,19.96
2022-08-17T05:37:27.561Z,19.95
2022-08-17T05:39:53.926Z,19.97
2022-08-17T05:42:20.324Z,19.99
2022-08-17T05:44:47.984Z,20.03
2022-08-17T05:47:14.315Z,20.12
2022-08-17T05:49:40.683Z,20.10
2022-08-17T05:52:19.586Z,20.05
2022-08-17T05:54:52.011Z,20.11
2022-08-17T05:57:36.461Z,20.21
2022-08-17T06:00:12.363Z,20.29
2022-08-17T06:02:47.982Z,20.29
2022-08-17T06:05:20.942Z,20.35
2022-08-17T06:07:49.602Z,20.41
2022-08-17T06:10:22.443Z,20.43
2022-08-17T06:12:54.452Z,20.47
2022-08-17T06:15:29.618Z,20.52
2022-08-17T06:17:58.532Z,20.55
2022-08-17T06:20:27.959Z,20.56
2022-08-17T06:22:58.650Z,20.57
2022-08-17T06:25:31.031Z,20.66
2022-08-17T06:28:01.541Z,20.66
2022-08-17T06:30:57.573Z,20.60
2022-08-17T06:33:23.666Z,20.61
2022-08-17T06:35:55.781Z,20.63
2022-08-17T06:38:38.205Z,20.61
2022-08-17T06:41:08.547Z,20.64
2022-08-17T06:43:47.830Z,20.67
2022-08-17T06:46:19.007Z,20.70
2022-08-17T06:48:46.849Z,20.73
2022-08-17T06:51:18.110Z,20.85
2022-08-17T06:53:47.568Z,20.84
2022-08-17T06:56:19.396Z,20.82
2022-08-17T06:58:46.512Z,20.85
2022-08-17T07:01:15.476Z,20.96
2022-08-17T07:03:48.682Z,20.93
2022-08-17T07:06:17.059Z,20.94
2022-08-17T07:08:50.875Z,20.98
2022-08-17T07:11:19.086Z,21.02
2022-08-17T07:13:51.230Z,21.08
2022-08-17T07:16:20.243Z,21.06
2022-08-17T07:18:49.692Z,21.06
2022-08-17T07:21:26.564Z,21.11
2022-08-17T07:24:01.895Z,20.99
2022-08-17T07:26:28.465Z,20.98
2022-08-17T07:28:55.257Z,21.02
2022-08-17T07:31:21.729Z,21.10
2022-08-17T07:34:00.162Z,21.12
2022-08-17T07:36:30.038Z,21.14
2022-08-17T07:38:57.445Z,21.17
2022-08-17T07:41:23.872Z,21.21
2022-08-17T07:43:50.565Z,21.26
2022-08-17T07:46:18.266Z,21.36
2022-08-17T07:48:45.899Z,21.46
2022-08-17T07:51:30.318Z,21.49
2022-08-17T07:54:13.633Z,21.52
2022-08-17T07:56:42.999Z,21.42
2022-08-17T07:59:14.511Z,21.30
2022-08-17T08:01:44.233Z,21.27
2022-08-17T08:04:43.208Z,21.33
2022-08-17T08:07:11.273Z,21.45
2022-08-17T08:09:40.994Z,21.61
2022-08-17T08:12:21.770Z,21.58
2022-08-17T08:14:52.142Z,21.65
2022-08-17T08:17:22.312Z,21.80
2022-08-17T08:19:48.636Z,21.87
2022-08-17T08:22:18.487Z,21.93
2022-08-17T08:24:52.027Z,22.05
2022-08-17T08:27:22.222Z,22.11
2022-08-17T08:29:52.917Z,22.21
2022-08-17T08:32:22.577Z,22.27
2022-08-17T08:35:01.386Z,22.33
2022-08-17T08:37:39.219Z,22.50
2022-08-17T08:40:15.542Z,22.54
2022-08-17T08:42:45.484Z,22.66
2022-08-17T08:45:15.055Z,22.75
2022-08-17T08:47:51.721Z,22.90
2022-08-17T08:50:36.903Z,22.96
2022-08-17T08:53:12.472Z,22.94
2022-08-17T08:55:47.327Z,23.02
2022-08-17T08:58:31.691Z,23.09
2022-08-17T09:01:05.395Z,23.05
2022-08-17T09:04:02.849Z,23.01
2022-08-17T09:06:46.235Z,23.07
2022-08-17T09:09:27.588Z,23.11
2022-08-17T09:12:02.183Z,23.14
2022-08-17T09:14:44.877Z,23.13
2022-08-17T09:17:15.161Z,23.08
2022-08-17T09:19:44.635Z,23.01
2022-08-17T09:22:23.957Z,22.91
2022-08-17T09:24:54.361Z,22.82
2022-08-17T09:27:23.516Z,22.74
2022-08-17T09:29:54.300Z,22.68
2022-08-17T09:32:24.556Z,22.59
2022-08-17T09:34:52.896Z,22.49
2022-08-17T09:37:22.759Z,22.38
2022-08-17T09:39:54.749Z,22.23
2022-08-17T09:42:26.654Z,22.13
2022-08-17T09:44:58.564Z,22.02
2022-08-17T09:47:27.587Z,21.91
2022-08-17T09:49:55.335Z,21.80
2022-08-17T09:52:23.140Z,21.66
2022-08-17T09:54:50.645Z,21.56
2022-08-17T09:57:32.613Z,21.52
2022-08-17T10:00:13.791Z,21.50
2022-08-17T10:02:49.215Z,21.50
2022-08-17T10:05:17.111Z,21.53
2022-08-17T10:07:47.790Z,21.56
2022-08-17T10:10:17.805Z,21.61
2022-08-17T10:12:49.973Z,21.64
2022-08-17T10:15:25.581Z,21.56
2022-08-17T10:18:04.689Z,21.55
2022-08-17T10:20:33.699Z,21.57
2022-08-17T10:23:02.743Z,21.48
2022-08-17T10:25:48.683Z,21.55
2022-08-17T10:28:20.354Z,21.53
2022-08-17T10:30:51.095Z,21.52
2022-08-17T10:33:20.236Z,21.65
2022-08-17T10:35:51.931Z,21.69
2022-08-17T10:38:44.228Z,21.70
2022-08-17T10:41:22.403Z,21.56
2022-08-17T10:44:37.175Z,21.47
2022-08-17T10:46:48.360Z,21.52
2022-08-17T10:49:29.568Z,21.58
2022-08-17T10:51:57.268Z,21.61
2022-08-17T10:54:40.821Z,21.46
2022-08-17T10:57:33.780Z,21.51
2022-08-17T11:00:02.612Z,21.45
2022-08-17T11:02:31.838Z,21.40
2022-08-17T11:05:07.176Z,21.38
2022-08-17T11:07:40.988Z,21.43
2022-08-17T11:10:16.949Z,21.40
2022-08-17T11:12:50.149Z,21.39
2022-08-17T11:15:23.857Z,21.42
2022-08-17T11:18:03.359Z,21.46
2022-08-17T11:20:39.164Z,21.47
2022-08-17T11:23:20.706Z,21.49
2022-08-17T11:25:50.636Z,21.47
2022-08-17T11:28:18.530Z,21.43
2022-08-17T11:30:48.578Z,21.42
2022-08-17T11:33:33.904Z,21.40
2022-08-17T11:36:12.167Z,21.41
2022-08-17T11:38:44.860Z,21.43
2022-08-17T11:41:18.118Z,21.44
2022-08-17T11:44:00.251Z,21.43
2022-08-17T11:46:35.517Z,21.40
2022-08-17T11:49:08.380Z,21.38
2022-08-17T11:51:58.767Z,21.41
2022-08-17T11:54:43.901Z,21.41
2022-08-17T11:57:28.815Z,21.43
2022-08-17T11:59:58.626Z,21.49
2022-08-17T12:02:38.719Z,21.51
2022-08-17T12:05:23.464Z,21.48
2022-08-17T12:07:51.633Z,21.50
2022-08-17T12:10:21.531Z,21.48
2022-08-17T12:12:50.083Z,21.41
2022-08-17T12:15:18.031Z,21.43
2022-08-17T12:17:51.179Z,21.40
2022-08-17T12:20:20.653Z,21.48
2022-08-17T12:22:51.399Z,21.40
2022-08-17T12:25:21.909Z,21.29
2022-08-17T12:28:06.605Z,21.14
2022-08-17T12:30:34.767Z,21.08
2022-08-17T12:33:01.192Z,21.11
2022-08-17T12:35:30.960Z,21.26
2022-08-17T12:37:57.489Z,21.19
2022-08-17T12:40:25.977Z,21.22
2022-08-17T12:42:56.561Z,21.23
2022-08-17T12:45:24.511Z,21.25
2022-08-17T12:47:59.340Z,21.23
2022-08-17T12:50:28.845Z,21.23
2022-08-17T12:53:01.132Z,21.24
2022-08-17T12:55:35.023Z,21.23
2022-08-17T12:58:02.264Z,21.25
2022-08-17T13:00:29.997Z,21.28
2022-08-17T13:02:58.810Z,21.32
2022-08-17T13:05:27.435Z,21.36
2022-08-17T13:07:54.384Z,21.41
2022-08-17T13:10:22.859Z,21.47
2022-08-17T13:12:51.073Z,21.54
2022-08-17T13:15:19.672Z,21.59
2022-08-17T13:17:54.703Z,21.66
2022-08-17T13:20:21.046Z,21.82
2022-08-17T13:22:52.174Z,22.00
2022-08-17T13:25:20.794Z,22.04
2022-08-17T13:27:47.359Z,22.10
2022-08-17T13:30:19.602Z,22.15
2022-08-17T13:32:45.931Z,22.22
2022-08-17T13:35:39.737Z,22.18
2022-08-17T13:38:08.002Z,22.12
2022-08-17T13:40:39.374Z,22.18
2022-08-17T13:43:05.723Z,22.17
2022-08-17T13:45:40.923Z,22.11
2022-08-17T13:48:13.612Z,22.17
2022-08-17T13:50:41.983Z,22.22
2022-08-17T13:53:20.052Z,22.27
2022-08-17T13:55:48.821Z,22.38
2022-08-17T13:58:19.435Z,22.48
2022-08-17T14:00:47.115Z,22.53
2022-08-17T14:03:13.468Z,22.67
2022-08-17T14:05:39.779Z,22.82
2022-08-17T14:08:06.940Z,23.01
2022-08-17T14:10:33.942Z,23.20
2022-08-17T14:13:00.537Z,23.40
2022-08-17T14:15:55.602Z,23.50
2022-08-17T14:18:14.837Z,23.54
2022-08-17T14:20:41.222Z,23.58
2022-08-17T14:23:07.547Z,23.66
2022-08-17T14:25:34.184Z,23.68
2022-08-17T14:28:01.219Z,23.55
2022-08-17T14:30:29.842Z,23.50
2022-08-17T14:32:56.369Z,23.47
2022-08-17T14:35:24.563Z,23.41
2022-08-17T14:37:51.349Z,23.35
2022-08-17T14:40:18.568Z,23.35
2022-08-17T14:42:45.886Z,23.35
2022-08-17T14:45:31.813Z,23.39
2022-08-17T14:47:59.038Z,23.41
2022-08-17T14:50:26.714Z,23.39
2022-08-17T14:52:53.038Z,23.36
2022-08-17T14:55:19.499Z,23.42
2022-08-17T14:57:45.843Z,23.56
2022-08-17T15:00:12.627Z,23.63
2022-08-17T15:02:46.496Z,23.66
2022-08-17T15:05:13.836Z,23.56
2022-08-17T15:07:41.569Z,23.47
2022-08-17T15:10:08.271Z,23.34
2022-08-17T15:12:34.900Z,23.22
2022-08-17T15:15:01.681Z,23.17
2022-08-17T15:17:43.877Z,23.16
2022-08-17T15:20:14.914Z,23.16
2022-08-17T15:22:43.517Z,23.11
2022-08-17T15:25:11.783Z,23.05
2022-08-17T15:27:38.119Z,23.03
2022-08-17T15:30:05.386Z,23.03
2022-08-17T15:32:34.798Z,23.12
2022-08-17T15:35:01.747Z,23.20
2022-08-17T15:37:28.976Z,23.24
2022-08-17T15:39:56.711Z,23.25
2022-08-17T15:42:23.584Z,23.19
2022-08-17T15:44:50.106Z,23.15
2022-08-17T15:47:16.729Z,23.04
2022-08-17T15:49:43.479Z,23.08
2022-08-17T15:52:14.653Z,23.29
2022-08-17T15:54:41.051Z,23.38
2022-08-17T15:57:13.011Z,23.26
2022-08-17T15:59:39.364Z,23.16
2022-08-17T16:03:15.263Z,23.02
2022-08-17T16:05:01.710Z,23.07
2022-08-17T16:07:28.081Z,23.26
2022-08-17T16:09:54.485Z,23.12
2022-08-17T16:12:22.236Z,22.86
2022-08-17T16:14:49.554Z,22.87
2022-08-17T16:17:39.276Z,22.85
2022-08-17T16:20:02.823Z,22.96
2022-08-17T16:22:31.027Z,23.00
2022-08-17T16:24:57.812Z,23.05
2022-08-17T16:27:25.607Z,22.93
2022-08-17T16:29:51.939Z,22.90
2022-08-17T16:32:31.997Z,22.84
2022-08-17T16:35:00.864Z,22.88
2022-08-17T16:37:27.204Z,22.69
2022-08-17T16:39:53.614Z,22.71
2022-08-17T16:42:26.459Z,22.70
2022-08-17T16:44:53.398Z,22.85
2022-08-17T16:47:20.047Z,22.87
2022-08-17T16:49:46.681Z,22.87
2022-08-17T16:52:13.474Z,22.94
2022-08-17T16:54:40.462Z,22.87
2022-08-17T16:57:06.820Z,22.84
2022-08-17T16:59:41.867Z,22.75
2022-08-17T17:02:10.723Z,22.74
2022-08-17T17:04:40.965Z,22.64
2022-08-17T17:07:11.964Z,22.61
2022-08-17T17:09:38.667Z,22.60
2022-08-17T17:12:11.165Z,22.75
2022-08-17T17:14:41.731Z,22.71
2022-08-17T17:17:13.103Z,22.61
2022-08-17T17:19:40.548Z,22.56
2022-08-17T17:22:14.008Z,22.53
2022-08-17T17:24:47.112Z,22.42
2022-08-17T17:27:23.459Z,22.43
2022-08-17T17:29:56.650Z,22.43
2022-08-17T17:32:28.092Z,22.52
2022-08-17T17:34:56.493Z,22.32
2022-08-17T17:37:25.503Z,22.26
2022-08-17T17:39:53.353Z,22.23
2022-08-17T17:42:21.665Z,22.25
2022-08-17T17:44:49.899Z,22.24
2022-08-17T17:47:17.572Z,22.18
2022-08-17T17:49:46.603Z,22.19
2022-08-17T17:52:19.404Z,22.22
2022-08-17T17:54:52.393Z,21.95
2022-08-17T17:57:21.553Z,21.87
2022-08-17T17:59:54.352Z,21.81
2022-08-17T18:02:31.968Z,21.73
2022-08-17T18:05:02.852Z,21.69
2022-08-17T18:07:32.836Z,21.60
2022-08-17T18:10:19.462Z,21.51
2022-08-17T18:12:59.667Z,21.40
2022-08-17T18:15:28.237Z,21.32
2022-08-17T18:18:13.148Z,21.25
2022-08-17T18:20:46.605Z,21.20
2022-08-17T18:23:27.698Z,21.14
2022-08-17T18:25:54.944Z,21.04
2022-08-17T18:28:22.857Z,20.98
2022-08-17T18:31:05.317Z,20.97
2022-08-17T18:33:31.729Z,20.89
2022-08-17T18:36:01.554Z,20.81
2022-08-17T18:38:29.644Z,20.76
2022-08-17T18:41:01.360Z,20.72
2022-08-17T18:43:43.929Z,20.68
2022-08-17T18:46:17.657Z,20.63
2022-08-17T18:48:58.908Z,20.61
2022-08-17T18:51:40.953Z,20.56
2022-08-17T18:54:16.957Z,20.51
2022-08-17T18:56:43.876Z,20.46
2022-08-17T18:59:12.960Z,20.42
2022-08-17T19:01:47.145Z,20.35
2022-08-17T19:04:33.954Z,20.28
2022-08-17T19:07:07.409Z,20.26
2022-08-17T19:09:35.272Z,20.24
2022-08-17T19:12:03.892Z,20.23
2022-08-17T19:14:30.787Z,20.17
2022-08-17T19:17:00.491Z,20.11
2022-08-17T19:19:30.452Z,20.07
2022-08-17T19:21:57.717Z,20.08
2022-08-17T19:24:27.079Z,20.17
2022-08-17T19:26:56.750Z,20.14
2022-08-17T19:29:26.557Z,20.15
2022-08-17T19:31:54.060Z,20.14
2022-08-17T19:34:30.203Z,20.00
2022-08-17T19:37:03.194Z,19.85
2022-08-17T19:39:38.268Z,19.76
2022-08-17T19:42:20.787Z,19.71
2022-08-17T19:44:52.870Z,19.66
2022-08-17T19:47:50.950Z,19.59
2022-08-17T19:50:13.314Z,19.50
2022-08-17T19:52:43.384Z,19.50
2022-08-17T19:55:20.259Z,19.45
2022-08-17T19:57:54.025Z,19.41
2022-08-17T20:00:20.346Z,19.38
2022-08-17T20:02:49.860Z,19.39
2022-08-17T20:05:19.674Z,19.38
2022-08-17T20:07:49.537Z,19.25
2022-08-17T20:10:20.413Z,19.20
2022-08-17T20:12:48.638Z,19.21
2022-08-17T20:15:17.735Z,19.23
2022-08-17T20:17:45.952Z,19.15
2022-08-17T20:20:20.251Z,19.07
2022-08-17T20:22:52.673Z,19.04
2022-08-17T20:25:29.946Z,19.01
2022-08-17T20:28:05.907Z,18.99
2022-08-17T20:30:34.836Z,18.96
2022-08-17T20:33:01.717Z,18.92
2022-08-17T20:35:29.696Z,18.91
2022-08-17T20:37:57.949Z,18.91
2022-08-17T20:40:30.929Z,18.87
2022-08-17T20:42:57.766Z,18.83
2022-08-17T20:45:48.389Z,18.79
2022-08-17T20:48:36.961Z,18.76
2022-08-17T20:51:15.091Z,18.75
2022-08-17T20:54:00.361Z,18.73
2022-08-17T20:56:47.505Z,18.72
2022-08-17T20:59:28.707Z,18.70
2022-08-17T21:02:03.271Z,18.68
2022-08-17T21:04:44.483Z,18.62
2022-08-17T21:07:25.727Z,18.61
2022-08-17T21:09:52.306Z,18.57
2022-08-17T21:12:33.525Z,18.55
2022-08-17T21:15:03.399Z,18.53
2022-08-17T21:17:39.880Z,18.50
2022-08-17T21:20:13.313Z,18.48
2022-08-17T21:22:46.264Z,18.47
2022-08-17T21:25:18.908Z,18.44
2022-08-17T21:27:49.309Z,18.42
2022-08-17T21:30:41.280Z,18.38
2022-08-17T21:33:21.586Z,18.37
2022-08-17T21:35:50.743Z,18.34
2022-08-17T21:38:18.333Z,18.36
2022-08-17T21:40:45.715Z,18.37
2022-08-17T21:43:20.022Z,18.31
2022-08-17T21:45:55.251Z,18.24
2022-08-17T21:48:22.569Z,18.23
2022-08-17T21:50:56.722Z,18.20
2022-08-17T21:53:28.088Z,18.15
2022-08-17T21:55:57.114Z,18.13
2022-08-17T21:58:27.969Z,18.12
2022-08-17T22:01:09.433Z,18.12
2022-08-17T22:03:37.267Z,18.09
2022-08-17T22:06:17.679Z,18.06
2022-08-17T22:08:56.417Z,18.07
2022-08-17T22:11:22.734Z,18.06
2022-08-17T22:13:49.063Z,18.08
2022-08-17T22:16:28.876Z,18.08
2022-08-17T22:18:57.768Z,18.07
2022-08-17T22:21:25.388Z,18.07
2022-08-17T22:23:59.995Z,18.08
2022-08-17T22:26:46.309Z,18.16
2022-08-17T22:29:27.519Z,18.27
2022-08-17T22:31:55.000Z,18.19
2022-08-17T22:34:22.686Z,18.22
2022-08-17T22:36:49.019Z,18.25
2022-08-17T22:39:30.283Z,18.32
2022-08-17T22:41:57.444Z,18.56
2022-08-17T22:44:25.748Z,18.57
2022-08-17T22:46:55.091Z,18.52
2022-08-17T22:49:24.279Z,18.42
2022-08-17T22:51:58.617Z,18.54
2022-08-17T22:54:27.483Z,18.51
2022-08-17T22:57:01.156Z,18.48
2022-08-17T22:59:36.100Z,18.47
2022-08-17T23:02:10.128Z,18.59
2022-08-17T23:04:39.006Z,18.72
2022-08-17T23:07:05.765Z,18.72
2022-08-17T23:09:32.084Z,18.88
2022-08-17T23:11:58.557Z,18.90
2022-08-17T23:14:26.093Z,18.87
2022-08-17T23:16:52.438Z,18.77
2022-08-17T23:19:20.007Z,18.64
2022-08-17T23:21:47.714Z,18.80
2022-08-17T23:24:17.065Z,18.91
2022-08-17T23:26:43.401Z,18.94
2022-08-17T23:29:09.739Z,18.89
2022-08-17T23:31:36.954Z,18.92
2022-08-17T23:34:03.967Z,18.95
2022-08-17T23:36:31.497Z,18.91
2022-08-17T23:38:59.154Z,18.93
2022-08-17T23:41:28.055Z,18.91
2022-08-17T23:43:54.384Z,18.92
2022-08-17T23:46:20.719Z,18.89
2022-08-17T23:48:47.031Z,18.91
2022-08-17T23:51:16.598Z,18.84
2022-08-17T23:53:45.317Z,18.82
2022-08-17T23:56:13.287Z,18.74
2022-08-17T23:58:40.357Z,18.73
